Archival Weather

Tahoua

Tahoua, Niger (DRRT)

Report from: Tuesday, June 6, 2023 7:00 PM WAT
Current time: Tuesday, July 16, 2024 9:17 AM WAT

Current weather – Weather history – Daily summaries
Weather forecast

Temperature39.0°C (102.2°F)
Heat index39.3°C (102.7°F)
Dew point15.0°C (59.0°F)
Winds 8 kts (4.1 m/s, 9.2 mph) Southwest (220°)
Visibility5 mi. (8 km)
Altimeter29.77 in.Hg (1008 mB)
Relative humidity24 %
Density altitude3,113 ft. (949 m)
Flight conditions Marginal Visual Meteorological Conditions
Raw dataDRRT 061800Z 22008KT 8000 NSC 39/15 Q1008
An error has occurred. This application may no longer respond until reloaded. Reload 🗙